Time;durP1;ratioP1;P1;durP2;ratioP2;P2;SDS_P1;SDS_P2;PMS_P1;PMS_P2;Temp;Humidity;BMP_temperature;BMP_pressure;BME280_temperature;BME280_humidity;BME280_pressure;Samples;Min_cycle;Max_cycle;Signal;HPM_P1;HPM_P2
2023/08/10 00:02:20;;;;;;;0.50;0.40;;;24.50;71.80;;;;;;6373138;27;20450;-51
2023/08/10 00:05:22;;;;;;;0.40;0.30;;;24.80;72.40;;;;;;6372544;27;20035;-54
2023/08/10 00:08:24;;;;;;;0.30;0.30;;;24.70;72.00;;;;;;6375579;27;20038;-54
2023/08/10 00:11:27;;;;;;;0.45;0.35;;;25.10;71.90;;;;;;6371388;27;20767;-53
2023/08/10 00:14:29;;;;;;;0.55;0.30;;;24.70;72.30;;;;;;6367752;27;20103;-53
2023/08/10 00:17:32;;;;;;;0.20;0.20;;;24.90;71.90;;;;;;6370518;27;20442;-54
2023/08/10 00:20:34;;;;;;;0.30;0.30;;;24.90;72.50;;;;;;6353973;27;20603;-53
2023/08/10 00:23:36;;;;;;;0.45;0.35;;;24.90;71.90;;;;;;6374326;27;20039;-53
2023/08/10 00:26:40;;;;;;;1.33;0.30;;;24.90;72.00;;;;;;6372371;27;20035;-53
2023/08/10 00:29:41;;;;;;;0.40;0.40;;;24.80;72.20;;;;;;6373020;27;20406;-53
2023/08/10 00:32:44;;;;;;;0.40;0.40;;;24.60;71.80;;;;;;6373723;27;20046;-54
2023/08/10 00:35:47;;;;;;;0.57;0.20;;;24.70;71.80;;;;;;6374081;27;20107;-59
2023/08/10 00:38:48;;;;;;;0.50;0.50;;;24.90;72.00;;;;;;6369483;27;20496;-60
2023/08/10 00:41:53;;;;;;;0.40;0.30;;;24.80;71.90;;;;;;6371829;27;20115;-61
2023/08/10 00:44:56;;;;;;;0.30;0.30;;;24.70;71.70;;;;;;6374491;27;20046;-61
2023/08/10 00:48:01;;;;;;;0.25;0.20;;;24.70;71.60;;;;;;6375629;27;20043;-61
2023/08/10 00:51:03;;;;;;;0.73;0.30;;;24.80;72.00;;;;;;6376671;27;20036;-61
2023/08/10 00:54:06;;;;;;;0.40;0.30;;;24.90;72.00;;;;;;6337880;27;20039;-60
2023/08/10 00:57:08;;;;;;;0.30;0.30;;;24.50;71.30;;;;;;6375911;27;20520;-60
2023/08/10 01:00:11;;;;;;;0.32;0.30;;;24.70;71.80;;;;;;6374258;27;20038;-61
2023/08/10 01:03:16;;;;;;;1.02;0.30;;;24.90;71.60;;;;;;6374825;27;20039;-61
2023/08/10 01:06:25;;;;;;;0.40;0.35;;;25.10;71.50;;;;;;6354509;27;20035;-60
2023/08/10 01:09:37;;;;;;;0.22;0.20;;;24.30;71.20;;;;;;6351895;27;20463;-61
2023/08/10 01:12:50;;;;;;;0.40;0.40;;;24.90;68.90;;;;;;6364236;27;20041;-61
2023/08/10 01:15:56;;;;;;;0.22;0.22;;;24.80;68.80;;;;;;6317303;27;20434;-61
2023/08/10 01:18:59;;;;;;;0.20;0.20;;;24.90;71.40;;;;;;6371135;27;20068;-60
2023/08/10 01:22:06;;;;;;;0.38;0.30;;;24.30;71.00;;;;;;6372577;27;20047;-60
2023/08/10 01:25:12;;;;;;;0.40;0.30;;;24.70;71.30;;;;;;6317986;27;20585;-60
2023/08/10 01:28:14;;;;;;;0.40;0.30;;;24.60;71.40;;;;;;6335137;27;20046;-61
2023/08/10 01:31:19;;;;;;;0.10;0.10;;;24.80;71.50;;;;;;6370246;27;20090;-60
2023/08/10 01:34:21;;;;;;;0.30;0.20;;;24.70;71.40;;;;;;6370375;27;20042;-60
2023/08/10 01:37:23;;;;;;;0.30;0.20;;;24.60;70.80;;;;;;6371494;27;20046;-60
2023/08/10 01:40:27;;;;;;;0.40;0.30;;;24.90;71.10;;;;;;6371139;27;20725;-60
2023/08/10 01:43:31;;;;;;;0.28;0.28;;;24.90;71.10;;;;;;6371249;27;20037;-60
2023/08/10 01:46:38;;;;;;;0.20;0.20;;;24.50;69.00;;;;;;6351962;27;20038;-60
2023/08/10 01:49:42;;;;;;;0.10;0.10;;;24.50;68.00;;;;;;6370742;27;20099;-61
2023/08/10 01:52:51;;;;;;;0.20;0.20;;;24.90;70.70;;;;;;6316857;27;20046;-60
2023/08/10 01:55:54;;;;;;;0.47;0.25;;;24.90;70.70;;;;;;6372309;27;20046;-60
2023/08/10 01:58:59;;;;;;;0.20;0.10;;;24.50;70.40;;;;;;6370136;27;20378;-60
2023/08/10 02:02:01;;;;;;;0.50;0.25;;;24.70;67.80;;;;;;6371893;27;20034;-60
2023/08/10 02:05:03;;;;;;;0.38;0.30;;;24.50;70.30;;;;;;6315922;27;20050;-60
2023/08/10 02:08:06;;;;;;;0.30;0.20;;;24.50;70.10;;;;;;6367133;27;20549;-60
2023/08/10 02:11:14;;;;;;;0.20;0.20;;;24.70;70.10;;;;;;6370366;27;20177;-60
2023/08/10 02:14:25;;;;;;;0.20;0.20;;;24.60;67.50;;;;;;6370988;27;20123;-60
2023/08/10 02:17:35;;;;;;;0.52;0.20;;;24.80;70.20;;;;;;6350785;27;20043;-60
2023/08/10 02:20:37;;;;;;;0.35;0.20;;;24.90;70.20;;;;;;6370950;27;20494;-60
2023/08/10 02:23:38;;;;;;;0.20;0.20;;;24.90;70.50;;;;;;6371651;27;20080;-60
2023/08/10 02:26:41;;;;;;;0.43;0.30;;;24.80;69.90;;;;;;6350610;27;20034;-60
2023/08/10 02:29:44;;;;;;;0.20;0.20;;;24.90;70.00;;;;;;6371175;27;20439;-60
2023/08/10 02:32:46;;;;;;;0.30;0.20;;;25.10;70.20;;;;;;6370359;27;20039;-60
2023/08/10 02:35:49;;;;;;;0.20;0.20;;;24.90;69.90;;;;;;6315677;27;20071;-60
2023/08/10 02:38:54;;;;;;;0.30;0.30;;;24.40;69.50;;;;;;6369918;27;20047;-60
2023/08/10 02:41:56;;;;;;;0.20;0.20;;;24.50;69.60;;;;;;6371385;27;20525;-60
2023/08/10 02:44:58;;;;;;;0.20;0.20;;;23.90;69.20;;;;;;6370876;27;20424;-60
2023/08/10 02:48:01;;;;;;;0.20;0.20;;;24.70;69.60;;;;;;6351707;27;20047;-60
2023/08/10 02:51:04;;;;;;;0.20;0.20;;;24.60;69.00;;;;;;6370971;27;20042;-60
2023/08/10 02:54:06;;;;;;;0.30;0.20;;;24.40;69.40;;;;;;6370043;27;20043;-60
2023/08/10 02:57:10;;;;;;;0.20;0.20;;;24.80;69.70;;;;;;6370486;27;20118;-60
2023/08/10 03:00:17;;;;;;;0.20;0.20;;;24.50;69.50;;;;;;6370011;27;20160;-60
2023/08/10 03:03:19;;;;;;;0.30;0.20;;;24.80;69.60;;;;;;6317759;27;20047;-60
2023/08/10 03:06:23;;;;;;;0.20;0.17;;;24.70;69.60;;;;;;6371099;27;20489;-60
2023/08/10 03:09:25;;;;;;;0.20;0.20;;;24.40;69.10;;;;;;6352407;27;20548;-60
2023/08/10 03:12:27;;;;;;;0.20;0.10;;;24.80;69.50;;;;;;6350970;27;20066;-60
2023/08/10 03:15:29;;;;;;;0.20;0.20;;;24.70;69.60;;;;;;6375406;27;20054;-54
2023/08/10 03:18:30;;;;;;;0.30;0.30;;;24.90;69.50;;;;;;6374492;27;20636;-51
2023/08/10 03:21:32;;;;;;;0.30;0.30;;;24.70;69.10;;;;;;6374102;27;20042;-53
2023/08/10 03:24:35;;;;;;;0.20;0.20;;;24.60;69.30;;;;;;6369447;27;20038;-54
2023/08/10 03:27:37;;;;;;;0.20;0.20;;;24.40;68.90;;;;;;6368245;27;20039;-53
2023/08/10 03:30:42;;;;;;;0.28;0.17;;;24.90;69.60;;;;;;6351845;27;20218;-50
2023/08/10 03:33:45;;;;;;;0.20;0.20;;;24.60;68.90;;;;;;6369730;27;20042;-53
2023/08/10 03:36:46;;;;;;;0.20;0.20;;;24.70;69.00;;;;;;6372040;27;20031;-54
2023/08/10 03:39:48;;;;;;;0.20;0.20;;;24.60;68.80;;;;;;6371313;27;20046;-52
2023/08/10 03:42:51;;;;;;;0.20;0.10;;;24.80;68.90;;;;;;6371541;27;20034;-51
2023/08/10 03:45:53;;;;;;;0.20;0.20;;;24.60;69.10;;;;;;6371138;27;20042;-55
2023/08/10 03:48:55;;;;;;;0.38;0.20;;;24.80;68.70;;;;;;6371708;27;20027;-54
2023/08/10 03:51:57;;;;;;;0.30;0.25;;;24.70;68.90;;;;;;6370578;27;20069;-54
2023/08/10 03:54:58;;;;;;;0.20;0.20;;;24.80;68.60;;;;;;6367567;27;20047;-52
2023/08/10 03:58:03;;;;;;;0.20;0.20;;;24.70;68.30;;;;;;6370423;27;20651;-52
2023/08/10 04:01:06;;;;;;;0.20;0.20;;;24.90;68.40;;;;;;6371031;27;21006;-53
2023/08/10 04:04:08;;;;;;;0.30;0.30;;;24.40;68.70;;;;;;6370152;27;20126;-50
2023/08/10 04:07:10;;;;;;;0.20;0.13;;;24.70;68.40;;;;;;6369493;27;20034;-54
2023/08/10 04:10:11;;;;;;;0.35;0.20;;;24.60;68.60;;;;;;6366771;27;20035;-53
2023/08/10 04:13:14;;;;;;;0.20;0.20;;;24.50;68.20;;;;;;6369744;27;20610;-51
2023/08/10 04:16:16;;;;;;;0.25;0.20;;;24.70;68.70;;;;;;6370285;27;20481;-54
2023/08/10 04:19:18;;;;;;;0.75;0.32;;;24.70;68.50;;;;;;6371396;27;20042;-54
2023/08/10 04:22:20;;;;;;;0.30;0.22;;;24.50;68.70;;;;;;6376247;27;20030;-52
2023/08/10 04:25:22;;;;;;;0.30;0.20;;;24.60;68.40;;;;;;6374531;27;20039;-52
2023/08/10 04:28:24;;;;;;;0.40;0.20;;;24.70;68.40;;;;;;6375276;27;20379;-52
2023/08/10 04:31:26;;;;;;;0.10;0.10;;;24.60;68.80;;;;;;6374968;27;20972;-52
2023/08/10 04:34:28;;;;;;;0.20;0.20;;;24.40;68.00;;;;;;6375185;27;20616;-51
2023/08/10 04:37:32;;;;;;;0.28;0.20;;;24.50;68.20;;;;;;6374554;27;20039;-52
2023/08/10 04:40:34;;;;;;;0.20;0.20;;;24.40;68.10;;;;;;6374126;27;20554;-51
2023/08/10 04:43:36;;;;;;;0.17;0.17;;;24.70;68.80;;;;;;6374909;27;20652;-54
2023/08/10 04:46:37;;;;;;;0.30;0.30;;;24.60;68.60;;;;;;6373423;27;20042;-55
2023/08/10 04:49:39;;;;;;;0.35;0.30;;;24.50;68.20;;;;;;6375502;27;20110;-53
2023/08/10 04:52:43;;;;;;;0.22;0.20;;;24.70;68.30;;;;;;6376536;27;20031;-52
2023/08/10 04:55:45;;;;;;;0.20;0.20;;;24.70;65.60;;;;;;6339593;27;20054;-51
2023/08/10 04:58:47;;;;;;;0.28;0.20;;;24.50;68.20;;;;;;6377991;27;20095;-53
2023/08/10 05:01:49;;;;;;;0.20;0.17;;;25.10;68.60;;;;;;6377996;27;20038;-52
2023/08/10 05:04:56;;;;;;;0.20;0.20;;;24.60;68.60;;;;;;6376318;27;20087;-52
2023/08/10 05:07:57;;;;;;;0.30;0.30;;;24.30;68.10;;;;;;6374915;27;20318;-54
2023/08/10 05:10:59;;;;;;;0.20;0.20;;;24.40;67.80;;;;;;6377774;27;20041;-54
2023/08/10 05:14:01;;;;;;;0.20;0.10;;;24.60;68.40;;;;;;6381387;27;20120;-54
2023/08/10 05:17:03;;;;;;;0.20;0.20;;;24.60;68.30;;;;;;6388245;27;20034;-50
2023/08/10 05:20:11;;;;;;;0.65;0.40;;;24.60;68.10;;;;;;6384580;27;20041;-54
2023/08/10 05:23:13;;;;;;;0.47;0.20;;;24.50;68.30;;;;;;6385233;27;20043;-51
2023/08/10 05:26:19;;;;;;;0.22;0.20;;;24.80;68.20;;;;;;6383599;27;20042;-54
2023/08/10 05:29:21;;;;;;;0.30;0.30;;;24.50;68.10;;;;;;6382939;27;20050;-54
2023/08/10 05:32:23;;;;;;;0.30;0.20;;;24.40;68.00;;;;;;6380688;27;20043;-52
2023/08/10 05:35:24;;;;;;;0.20;0.20;;;24.60;68.10;;;;;;6379895;27;20049;-54
2023/08/10 05:38:26;;;;;;;0.22;0.20;;;24.60;68.00;;;;;;6380594;27;20041;-50
2023/08/10 05:41:27;;;;;;;0.20;0.20;;;24.60;68.00;;;;;;6379516;27;20030;-54
2023/08/10 05:44:29;;;;;;;0.28;0.20;;;24.60;68.10;;;;;;6378699;27;20026;-52
2023/08/10 05:47:32;;;;;;;0.20;0.20;;;24.80;68.00;;;;;;6378836;27;20091;-52
2023/08/10 05:50:33;;;;;;;0.20;0.20;;;24.60;68.30;;;;;;6378024;27;20043;-54
2023/08/10 05:53:35;;;;;;;0.30;0.30;;;24.50;68.00;;;;;;6379643;27;20043;-52
2023/08/10 05:56:36;;;;;;;0.30;0.25;;;24.30;67.70;;;;;;6382446;27;20581;-52
2023/08/10 05:59:40;;;;;;;0.35;0.30;;;24.50;67.80;;;;;;6381644;27;20031;-54
2023/08/10 06:02:42;;;;;;;0.20;0.20;;;24.50;67.90;;;;;;6376401;27;20043;-53
2023/08/10 06:05:46;;;;;;;0.20;0.20;;;24.70;67.90;;;;;;6361773;27;20129;-52
2023/08/10 06:08:48;;;;;;;0.20;0.20;;;24.60;67.70;;;;;;6381936;27;20042;-53
2023/08/10 06:11:49;;;;;;;0.20;0.20;;;24.70;67.80;;;;;;6384617;27;20409;-54
2023/08/10 06:14:51;;;;;;;0.40;0.30;;;24.60;67.80;;;;;;6381913;27;20051;-54
2023/08/10 06:17:53;;;;;;;0.20;0.20;;;24.50;67.40;;;;;;6378803;27;20039;-54
2023/08/10 06:20:55;;;;;;;0.22;0.20;;;24.70;67.80;;;;;;6379033;27;20069;-52
2023/08/10 06:23:56;;;;;;;0.20;0.20;;;24.70;67.60;;;;;;6379858;27;20493;-54
2023/08/10 06:26:58;;;;;;;0.28;0.20;;;24.70;67.90;;;;;;6378696;27;20091;-54
2023/08/10 06:30:01;;;;;;;0.20;0.15;;;24.50;67.60;;;;;;6379498;27;20339;-53
2023/08/10 06:33:02;;;;;;;0.30;0.30;;;24.30;67.50;;;;;;6359793;27;20060;-53
2023/08/10 06:36:06;;;;;;;0.20;0.20;;;24.50;67.80;;;;;;6376426;27;20035;-54
2023/08/10 06:39:10;;;;;;;0.25;0.20;;;24.40;67.40;;;;;;6380581;27;20187;-53
2023/08/10 06:42:11;;;;;;;1.20;0.20;;;24.60;67.70;;;;;;6359033;27;20043;-52
2023/08/10 06:45:13;;;;;;;0.32;0.30;;;24.50;67.50;;;;;;6386815;27;20084;-53
2023/08/10 06:48:15;;;;;;;1.00;0.30;;;24.60;67.20;;;;;;6383411;27;20043;-54
2023/08/10 06:51:17;;;;;;;0.40;0.20;;;24.70;68.20;;;;;;6384341;27;20550;-54
2023/08/10 06:54:20;;;;;;;0.52;0.32;;;24.30;67.30;;;;;;6386896;27;20643;-54
2023/08/10 06:57:24;;;;;;;0.55;0.40;;;23.70;67.10;;;;;;6389981;27;20026;-53
2023/08/10 07:00:27;;;;;;;1.13;0.32;;;24.60;67.90;;;;;;6398287;27;20041;-54
2023/08/10 07:03:32;;;;;;;0.95;0.45;;;24.40;67.60;;;;;;6380411;27;20073;-55
2023/08/10 07:06:36;;;;;;;0.90;0.47;;;24.50;67.80;;;;;;6388724;27;20035;-52
2023/08/10 07:09:38;;;;;;;1.25;0.60;;;24.40;67.60;;;;;;6397262;27;20038;-53
2023/08/10 07:12:39;;;;;;;1.27;0.50;;;24.40;67.60;;;;;;6384904;27;20057;-52
2023/08/10 07:15:42;;;;;;;0.40;0.30;;;24.70;68.00;;;;;;6377690;27;20034;-55
2023/08/10 07:18:43;;;;;;;1.27;0.47;;;24.60;67.70;;;;;;6382909;27;20038;-54
2023/08/10 07:21:45;;;;;;;0.82;0.43;;;24.50;68.00;;;;;;6371032;27;20034;-55
2023/08/10 07:24:46;;;;;;;2.38;0.73;;;24.50;68.50;;;;;;6369868;27;20035;-54
2023/08/10 07:27:48;;;;;;;0.68;0.50;;;24.70;68.30;;;;;;6409438;27;20039;-54
2023/08/10 07:30:51;;;;;;;1.92;0.50;;;24.60;67.80;;;;;;6392856;27;20748;-52
2023/08/10 07:33:52;;;;;;;0.80;0.50;;;24.50;68.80;;;;;;6373744;27;20042;-58
2023/08/10 07:36:57;;;;;;;0.75;0.55;;;24.40;68.50;;;;;;6382192;27;20035;-58
2023/08/10 07:39:59;;;;;;;0.70;0.65;;;24.70;68.50;;;;;;6386181;27;20150;-56
2023/08/10 07:43:00;;;;;;;0.98;0.70;;;24.70;68.70;;;;;;6367928;27;20031;-54
2023/08/10 07:46:04;;;;;;;1.65;0.50;;;24.70;68.40;;;;;;6367002;27;20035;-57
2023/08/10 07:49:05;;;;;;;1.15;0.63;;;24.80;69.00;;;;;;6367346;27;20175;-56
2023/08/10 07:52:07;;;;;;;1.33;0.50;;;24.50;68.10;;;;;;6367310;27;20027;-53
2023/08/10 07:55:10;;;;;;;0.60;0.40;;;24.80;67.80;;;;;;6367633;27;20661;-54
2023/08/10 07:58:14;;;;;;;1.02;0.60;;;24.50;67.70;;;;;;6366709;27;20042;-56
2023/08/10 08:01:16;;;;;;;0.60;0.40;;;24.60;67.60;;;;;;6368711;27;20549;-58
2023/08/10 08:04:19;;;;;;;0.57;0.43;;;24.60;67.60;;;;;;6340722;27;20051;-57
2023/08/10 08:07:23;;;;;;;0.45;0.35;;;24.80;67.60;;;;;;6337837;27;20043;-54
2023/08/10 08:10:24;;;;;;;1.90;0.63;;;24.90;67.70;;;;;;6330719;27;20027;-55
2023/08/10 08:13:26;;;;;;;0.75;0.50;;;25.00;67.40;;;;;;6338287;27;20043;-56
2023/08/10 08:16:29;;;;;;;1.58;0.50;;;24.90;67.60;;;;;;6338811;27;20031;-55
2023/08/10 08:19:36;;;;;;;1.13;0.60;;;24.90;66.30;;;;;;6341942;27;20113;-55
2023/08/10 08:22:37;;;;;;;1.52;0.70;;;25.00;67.40;;;;;;6341153;28;20027;-55
2023/08/10 08:25:39;;;;;;;0.80;0.63;;;25.10;67.40;;;;;;6341659;27;20043;-53
2023/08/10 08:28:42;;;;;;;0.60;0.50;;;24.90;67.40;;;;;;6327771;27;20039;-55
2023/08/10 08:31:45;;;;;;;0.88;0.68;;;25.10;67.20;;;;;;6341398;27;20034;-51
2023/08/10 08:34:46;;;;;;;1.17;0.70;;;25.00;67.80;;;;;;6343047;28;20042;-53
2023/08/10 08:37:48;;;;;;;0.77;0.60;;;24.90;67.00;;;;;;6343961;27;20032;-52
2023/08/10 08:40:54;;;;;;;0.80;0.65;;;24.90;67.50;;;;;;6352999;28;20122;-52
2023/08/10 08:43:56;;;;;;;1.10;0.98;;;24.90;66.80;;;;;;6351178;28;20133;-55
2023/08/10 08:46:58;;;;;;;0.50;0.50;;;25.50;67.00;;;;;;6345624;27;20092;-52
2023/08/10 08:50:00;;;;;;;1.00;0.65;;;24.80;66.30;;;;;;6342658;28;20495;-54
2023/08/10 08:53:06;;;;;;;0.98;0.63;;;25.00;66.60;;;;;;6342876;27;20031;-55
2023/08/10 08:56:07;;;;;;;0.50;0.45;;;25.10;66.40;;;;;;6342048;28;20031;-54
2023/08/10 08:59:09;;;;;;;2.90;0.90;;;25.10;66.60;;;;;;6344062;27;20039;-55
2023/08/10 09:02:14;;;;;;;0.80;0.60;;;26.00;66.90;;;;;;6344274;27;20035;-54
2023/08/10 09:05:20;;;;;;;0.88;0.65;;;25.00;66.30;;;;;;6341367;27;20071;-52
2023/08/10 09:08:23;;;;;;;1.38;0.60;;;25.10;65.70;;;;;;6341087;27;20060;-53
2023/08/10 09:11:24;;;;;;;0.85;0.70;;;25.10;65.80;;;;;;6335474;27;20331;-53
2023/08/10 09:14:26;;;;;;;0.73;0.70;;;25.00;65.80;;;;;;6338503;28;20035;-52
2023/08/10 09:17:28;;;;;;;1.13;0.73;;;25.60;66.40;;;;;;6336585;28;20039;-50
2023/08/10 09:20:30;;;;;;;0.60;0.50;;;25.20;65.60;;;;;;6343836;28;20042;-53
2023/08/10 09:23:35;;;;;;;0.80;0.40;;;25.20;65.40;;;;;;6345302;27;20031;-53
2023/08/10 09:26:40;;;;;;;0.90;0.70;;;24.90;65.30;;;;;;6350168;28;20319;-53
2023/08/10 09:29:41;;;;;;;1.13;0.40;;;25.20;65.40;;;;;;6351906;27;20042;-54
2023/08/10 09:32:44;;;;;;;1.45;0.60;;;25.40;65.80;;;;;;6352300;27;20115;-51
2023/08/10 09:35:47;;;;;;;0.68;0.52;;;25.40;66.00;;;;;;6332121;28;20259;-54
2023/08/10 09:38:50;;;;;;;0.90;0.60;;;25.30;65.90;;;;;;6332078;27;20035;-54
2023/08/10 09:41:55;;;;;;;0.95;0.60;;;25.10;65.40;;;;;;6353960;27;20746;-54
2023/08/10 09:45:04;;;;;;;0.65;0.60;;;25.30;65.40;;;;;;6348915;27;20054;-53
2023/08/10 09:48:11;;;;;;;0.68;0.50;;;25.30;65.80;;;;;;6328937;28;20673;-52
2023/08/10 09:51:13;;;;;;;2.00;0.60;;;25.30;65.30;;;;;;6335815;28;20085;-53
2023/08/10 09:54:14;;;;;;;1.30;0.80;;;25.40;65.70;;;;;;6344069;27;20697;-52
2023/08/10 09:57:17;;;;;;;0.68;0.50;;;25.00;65.40;;;;;;6320570;27;20234;-54
2023/08/10 10:00:18;;;;;;;0.77;0.55;;;25.00;65.20;;;;;;6324264;28;20529;-54
2023/08/10 10:03:22;;;;;;;1.73;0.73;;;25.30;65.60;;;;;;6328493;27;20094;-54
2023/08/10 10:06:26;;;;;;;0.60;0.40;;;25.40;66.70;;;;;;6287220;28;20055;-55
2023/08/10 10:09:29;;;;;;;0.60;0.57;;;25.60;66.10;;;;;;6330580;28;20437;-54
2023/08/10 10:12:35;;;;;;;0.52;0.50;;;25.50;65.60;;;;;;6282837;28;20659;-51
2023/08/10 10:15:39;;;;;;;3.40;0.70;;;25.40;65.80;;;;;;6269011;27;20031;-49
2023/08/10 10:18:41;;;;;;;1.55;0.60;;;25.50;66.10;;;;;;6295209;27;20253;-54
2023/08/10 10:21:43;;;;;;;0.60;0.50;;;25.60;65.70;;;;;;6287921;28;20063;-52
2023/08/10 10:24:47;;;;;;;3.20;0.60;;;25.50;66.00;;;;;;6295141;28;20038;-54
2023/08/10 10:27:50;;;;;;;1.75;0.50;;;25.40;65.20;;;;;;6322017;27;20050;-53
2023/08/10 10:30:54;;;;;;;0.77;0.50;;;25.40;65.20;;;;;;6333628;27;20733;-54
2023/08/10 10:33:56;;;;;;;1.50;0.70;;;25.50;64.70;;;;;;6332532;27;20038;-51
2023/08/10 10:37:07;;;;;;;0.85;0.57;;;25.50;64.70;;;;;;6313621;27;20043;-55
2023/08/10 10:40:18;;;;;;;1.30;0.80;;;25.50;64.50;;;;;;6332515;28;20595;-54
2023/08/10 10:43:20;;;;;;;1.58;0.55;;;25.20;64.30;;;;;;6314856;28;20624;-55
2023/08/10 10:46:36;;;;;;;1.40;0.60;;;25.70;64.60;;;;;;6337825;27;20175;-55
2023/08/10 10:49:53;;;;;;;0.90;0.68;;;25.30;64.90;;;;;;6339605;27;20311;-55
2023/08/10 10:52:58;;;;;;;0.70;0.68;;;25.40;64.50;;;;;;6336683;27;20043;-54
2023/08/10 10:56:00;;;;;;;2.20;0.77;;;25.50;64.60;;;;;;6320087;28;20038;-55
2023/08/10 10:59:02;;;;;;;1.08;0.80;;;25.20;64.10;;;;;;6335611;27;20493;-53
2023/08/10 11:02:04;;;;;;;1.05;0.52;;;25.60;64.70;;;;;;6323816;27;20047;-54
2023/08/10 11:05:13;;;;;;;0.73;0.60;;;25.50;64.70;;;;;;6331513;28;20405;-55
2023/08/10 11:08:15;;;;;;;0.90;0.80;;;25.60;64.60;;;;;;6331518;27;20042;-54
2023/08/10 11:11:17;;;;;;;1.10;0.60;;;25.60;64.60;;;;;;6336521;28;20042;-56
2023/08/10 11:14:19;;;;;;;1.33;0.77;;;25.50;65.20;;;;;;6339887;27;20039;-55
2023/08/10 11:17:22;;;;;;;1.40;0.40;;;25.60;64.50;;;;;;6340472;27;20084;-56
2023/08/10 11:20:25;;;;;;;0.65;0.50;;;25.70;64.90;;;;;;6342976;27;20028;-53
2023/08/10 11:23:29;;;;;;;1.00;0.43;;;25.70;65.30;;;;;;6345253;28;20110;-53
2023/08/10 11:26:30;;;;;;;0.60;0.52;;;25.70;65.10;;;;;;6343924;27;20096;-53
2023/08/10 11:29:32;;;;;;;0.63;0.55;;;25.50;64.80;;;;;;6344493;27;20039;-55
2023/08/10 11:32:33;;;;;;;0.70;0.45;;;25.70;65.20;;;;;;6346592;28;20776;-55
2023/08/10 11:35:36;;;;;;;1.00;0.60;;;25.50;65.30;;;;;;6343418;28;20067;-53
2023/08/10 11:38:46;;;;;;;0.80;0.40;;;25.50;65.50;;;;;;6340021;28;20046;-55
2023/08/10 11:41:49;;;;;;;0.50;0.40;;;25.50;65.90;;;;;;6342656;27;20039;-53
2023/08/10 11:44:52;;;;;;;1.63;0.50;;;25.60;66.20;;;;;;6343180;27;20039;-54
2023/08/10 11:47:54;;;;;;;0.50;0.50;;;25.30;65.60;;;;;;6341043;27;20439;-52
2023/08/10 11:51:07;;;;;;;0.35;0.35;;;25.40;65.90;;;;;;6308670;27;20042;-52
2023/08/10 11:54:09;;;;;;;0.60;0.52;;;25.60;66.20;;;;;;6323935;28;20043;-52
2023/08/10 11:57:14;;;;;;;0.70;0.50;;;25.60;66.70;;;;;;6334681;27;20039;-51
2023/08/10 12:00:21;;;;;;;0.60;0.40;;;25.30;66.20;;;;;;6334133;27;20039;-54
2023/08/10 12:03:25;;;;;;;0.80;0.50;;;25.50;66.50;;;;;;6334122;27;20042;-58
2023/08/10 12:06:40;;;;;;;0.70;0.47;;;25.60;67.10;;;;;;6298910;28;20027;-58
2023/08/10 12:09:47;;;;;;;1.33;0.50;;;25.70;67.40;;;;;;6316031;28;20050;-58
2023/08/10 12:12:57;;;;;;;0.38;0.30;;;25.70;67.50;;;;;;6320540;27;20039;-58
2023/08/10 12:16:03;;;;;;;0.77;0.60;;;25.30;67.20;;;;;;6323452;28;20062;-58
2023/08/10 12:19:04;;;;;;;0.80;0.70;;;25.40;67.40;;;;;;6320507;28;20039;-59
2023/08/10 12:22:07;;;;;;;0.50;0.35;;;25.50;67.10;;;;;;6317997;28;20035;-59
2023/08/10 12:25:09;;;;;;;0.88;0.65;;;25.70;66.90;;;;;;6316186;27;20070;-60
2023/08/10 12:28:12;;;;;;;0.40;0.35;;;25.80;67.70;;;;;;6318657;28;20039;-52
2023/08/10 12:31:14;;;;;;;0.40;0.40;;;25.50;67.20;;;;;;6309119;28;20039;-55
2023/08/10 12:34:19;;;;;;;0.73;0.63;;;25.50;67.40;;;;;;6336706;27;20039;-54
2023/08/10 12:37:24;;;;;;;0.85;0.60;;;25.70;64.70;;;;;;6334205;27;20089;-53
2023/08/10 12:40:26;;;;;;;0.63;0.55;;;25.60;66.90;;;;;;6334919;27;20082;-53
2023/08/10 12:43:28;;;;;;;0.82;0.50;;;25.40;66.70;;;;;;6343051;28;20031;-56
2023/08/10 12:46:29;;;;;;;0.65;0.40;;;25.40;66.70;;;;;;6342863;28;20438;-55
2023/08/10 12:49:31;;;;;;;0.40;0.35;;;25.50;66.60;;;;;;6345679;27;20054;-55
2023/08/10 12:52:35;;;;;;;0.65;0.52;;;25.70;66.90;;;;;;6344784;27;20035;-55
2023/08/10 12:55:37;;;;;;;0.45;0.40;;;25.70;67.90;;;;;;6344415;28;20042;-56
2023/08/10 12:58:39;;;;;;;0.32;0.30;;;25.30;66.90;;;;;;6344505;27;20473;-57
2023/08/10 13:01:43;;;;;;;0.88;0.43;;;25.70;67.60;;;;;;6345249;28;20042;-56
2023/08/10 13:04:46;;;;;;;0.60;0.50;;;25.50;64.60;;;;;;6346317;28;20036;-55
2023/08/10 13:07:48;;;;;;;0.43;0.43;;;25.30;66.50;;;;;;6328459;27;20031;-53
2023/08/10 13:10:50;;;;;;;0.40;0.40;;;25.30;67.20;;;;;;6342767;27;20136;-55
2023/08/10 13:13:51;;;;;;;0.55;0.40;;;25.50;66.70;;;;;;6340818;27;20095;-55
2023/08/10 13:16:53;;;;;;;0.30;0.30;;;25.70;66.90;;;;;;6347036;27;20031;-55
2023/08/10 13:19:58;;;;;;;0.25;0.22;;;25.50;66.60;;;;;;6308873;28;20110;-54
2023/08/10 13:23:00;;;;;;;0.65;0.45;;;25.40;66.60;;;;;;6313781;27;20084;-53
2023/08/10 13:26:03;;;;;;;0.50;0.47;;;25.70;66.50;;;;;;6345442;27;20114;-56
2023/08/10 13:29:07;;;;;;;0.40;0.40;;;25.20;66.20;;;;;;6345024;28;20066;-55
2023/08/10 13:32:09;;;;;;;0.32;0.25;;;25.70;66.50;;;;;;6316515;27;20115;-55
2023/08/10 13:35:10;;;;;;;0.90;0.50;;;25.30;66.40;;;;;;6295586;27;20971;-55
2023/08/10 13:38:13;;;;;;;0.50;0.38;;;25.50;66.60;;;;;;6322441;27;20038;-54
2023/08/10 13:41:14;;;;;;;1.23;0.40;;;25.60;66.80;;;;;;6324645;27;20108;-53
2023/08/10 13:44:16;;;;;;;1.55;0.45;;;25.50;66.10;;;;;;6323936;27;20035;-53
2023/08/10 13:47:19;;;;;;;0.30;0.30;;;24.80;66.00;;;;;;6321405;28;20027;-53
2023/08/10 13:50:21;;;;;;;0.50;0.43;;;25.40;66.10;;;;;;6341513;27;20046;-53
2023/08/10 13:53:23;;;;;;;0.50;0.40;;;25.70;66.30;;;;;;6344468;27;20088;-56
2023/08/10 13:56:26;;;;;;;0.52;0.40;;;25.50;66.10;;;;;;6343155;27;20097;-54
2023/08/10 13:59:33;;;;;;;1.27;0.32;;;25.70;66.30;;;;;;6343726;27;20506;-51
2023/08/10 14:02:34;;;;;;;0.43;0.40;;;25.50;66.10;;;;;;6338411;28;20060;-54
2023/08/10 14:05:36;;;;;;;0.70;0.43;;;25.50;66.50;;;;;;6344871;28;20043;-53
2023/08/10 14:08:38;;;;;;;1.67;0.50;;;25.70;66.00;;;;;;6343226;27;20084;-54
2023/08/10 14:11:43;;;;;;;0.63;0.45;;;25.50;66.00;;;;;;6340970;27;20077;-53
2023/08/10 14:14:45;;;;;;;0.50;0.40;;;25.60;66.30;;;;;;6341725;28;20038;-56
2023/08/10 14:17:46;;;;;;;1.00;0.57;;;25.80;66.00;;;;;;6342403;27;20046;-54
2023/08/10 14:20:48;;;;;;;0.70;0.50;;;25.50;66.00;;;;;;6343036;27;20041;-53
2023/08/10 14:23:50;;;;;;;0.68;0.50;;;25.50;65.60;;;;;;6321567;27;20922;-56
2023/08/10 14:26:52;;;;;;;0.60;0.50;;;25.50;65.60;;;;;;6305156;27;20609;-55
2023/08/10 14:29:53;;;;;;;0.75;0.40;;;26.60;66.70;;;;;;6298207;28;20654;-51
2023/08/10 14:32:55;;;;;;;0.40;0.40;;;25.80;65.90;;;;;;6289469;28;20039;-56
2023/08/10 14:35:56;;;;;;;0.57;0.57;;;25.60;65.90;;;;;;6335010;27;20610;-56
2023/08/10 14:38:58;;;;;;;0.85;0.60;;;25.60;66.40;;;;;;6303040;28;20058;-55
2023/08/10 14:42:00;;;;;;;0.73;0.50;;;24.50;65.30;;;;;;6302132;27;20754;-56
2023/08/10 14:45:02;;;;;;;0.55;0.50;;;25.40;65.80;;;;;;6306958;28;20224;-56
2023/08/10 14:48:04;;;;;;;0.55;0.50;;;25.70;66.10;;;;;;6343401;28;20032;-56
2023/08/10 14:51:05;;;;;;;0.50;0.40;;;25.70;65.50;;;;;;6342541;27;20035;-55
2023/08/10 14:54:08;;;;;;;0.60;0.40;;;25.70;66.20;;;;;;6341591;28;20039;-54
2023/08/10 14:57:10;;;;;;;0.50;0.47;;;25.50;65.70;;;;;;6340430;27;20042;-55
2023/08/10 15:00:15;;;;;;;0.57;0.40;;;25.40;65.90;;;;;;6343437;27;20035;-55
2023/08/10 15:03:17;;;;;;;0.55;0.40;;;25.50;65.90;;;;;;6340373;27;20035;-54
2023/08/10 15:06:18;;;;;;;0.52;0.30;;;25.60;66.10;;;;;;6340098;28;20088;-55
2023/08/10 15:09:23;;;;;;;0.50;0.40;;;25.50;65.70;;;;;;6338214;27;20114;-51
2023/08/10 15:12:25;;;;;;;0.40;0.30;;;25.70;66.20;;;;;;6324273;27;20092;-55
2023/08/10 15:15:26;;;;;;;0.50;0.30;;;25.60;66.00;;;;;;6319805;28;21040;-51
2023/08/10 15:18:31;;;;;;;0.50;0.40;;;25.60;65.90;;;;;;6301950;27;20031;-50
2023/08/10 15:21:32;;;;;;;0.40;0.40;;;25.50;66.30;;;;;;6297111;28;20712;-55
2023/08/10 15:24:35;;;;;;;0.40;0.40;;;25.60;65.80;;;;;;6323550;28;20035;-53
2023/08/10 15:27:39;;;;;;;0.30;0.30;;;25.60;66.00;;;;;;6339444;27;20092;-55
2023/08/10 15:30:41;;;;;;;0.60;0.50;;;25.70;65.80;;;;;;6338610;28;20665;-56
2023/08/10 15:33:45;;;;;;;0.40;0.40;;;25.30;65.10;;;;;;6337167;27;20035;-52
2023/08/10 15:36:47;;;;;;;0.65;0.40;;;26.90;66.60;;;;;;6338098;27;20720;-55
2023/08/10 15:39:49;;;;;;;1.10;0.40;;;25.60;66.00;;;;;;6335821;28;20038;-54
2023/08/10 15:42:50;;;;;;;1.17;0.50;;;24.60;65.20;;;;;;6339045;28;20096;-58
2023/08/10 15:45:58;;;;;;;0.70;0.60;;;25.50;66.30;;;;;;6339037;27;20108;-58
2023/08/10 15:49:00;;;;;;;0.55;0.45;;;25.70;66.40;;;;;;6339621;27;20038;-58
2023/08/10 15:52:02;;;;;;;0.50;0.47;;;25.60;66.20;;;;;;6341206;27;20027;-58
2023/08/10 15:55:04;;;;;;;0.75;0.50;;;25.40;66.20;;;;;;6341771;27;20036;-57